Audubon, New Jersey
Current Conditions -  °F | °C
As of 9:54 PM on Thursday 27 Nov 2014 (Local Time) from KPHL Reporting Station
Few Clouds Few Clouds  
Wind Chill: 27°   Ceiling: Unl
Heat Index: 32°   Visibility: 10mi
Dew Point: 25°   Wind: 5mph
Humidity: 75%   Direction: 340°NNW
Pressure: 30.12"   Gusts: NA
Location:  39.89°N, 75.09°W
Report Text: KPHL 280254Z 34004KT 10SM FEW200 00/M04 A3012 RMK AO2 SLP198 T00001039 51007 $
Loading
Personal Weather Stations






























Interactive Weather Map New forecast layout! Learn more

10-Day Weather Forecast

Advertisements
Track Severe Weather on mobile